createdAt,value
2018-12-26T00:00:22.174Z,10.5
2018-12-26T00:01:10.928Z,10.6
2018-12-26T00:02:01.419Z,10.6
2018-12-26T00:02:53.423Z,10.6
2018-12-26T00:03:41.252Z,10.6
2018-12-26T00:04:31.176Z,10.6
2018-12-26T00:05:21.804Z,10.6
2018-12-26T00:06:12.231Z,10.5
2018-12-26T00:07:01.744Z,10.5
2018-12-26T00:07:51.112Z,10.5
2018-12-26T00:08:41.824Z,10.5
2018-12-26T00:09:33.965Z,10.5
2018-12-26T00:10:21.187Z,10.5
2018-12-26T00:11:11.541Z,10.5
2018-12-26T00:12:00.749Z,10.5
2018-12-26T00:12:50.874Z,10.5
2018-12-26T00:13:40.829Z,10.5
2018-12-26T00:14:31.439Z,10.5
2018-12-26T00:32:42.216Z,10.4
2018-12-26T00:33:32.705Z,10.5
2018-12-26T00:34:22.442Z,10.4
2018-12-26T00:35:11.953Z,10.4
2018-12-26T00:36:01.898Z,10.4
2018-12-26T00:36:51.766Z,10.5
2018-12-26T00:37:42.360Z,10.4
2018-12-26T00:38:31.867Z,10.4
2018-12-26T00:39:21.092Z,10.4
2018-12-26T00:40:11.432Z,10.4
2018-12-26T00:41:02.822Z,10.4
2018-12-26T00:41:52.087Z,10.5
2018-12-26T00:42:43.749Z,10.4
2018-12-26T00:43:32.942Z,10.4
2018-12-26T00:44:22.179Z,10.4
2018-12-26T00:45:12.789Z,10.5
2018-12-26T00:46:02.767Z,10.5
2018-12-26T00:46:53.081Z,10.5
2018-12-26T00:47:43.469Z,10.5
2018-12-26T00:48:33.581Z,10.5
2018-12-26T00:49:23.654Z,10.5
2018-12-26T00:50:13.682Z,10.5
2018-12-26T00:51:03.529Z,10.5
2018-12-26T00:51:53.166Z,10.5
2018-12-26T00:52:43.574Z,10.5
2018-12-26T00:53:33.444Z,10.5
2018-12-26T00:54:22.848Z,10.4
2018-12-26T00:55:13.144Z,10.5
2018-12-26T00:56:12.524Z,10.5
2018-12-26T00:56:53.806Z,10.5
2018-12-26T00:57:43.364Z,10.5
2018-12-26T00:58:34.052Z,10.5
2018-12-26T00:59:23.486Z,10.5
2018-12-26T01:00:13.276Z,10.5
2018-12-26T01:01:04.086Z,10.5
2018-12-26T01:01:54.258Z,10.5
2018-12-26T01:02:44.286Z,10.5
2018-12-26T01:03:34.892Z,10.5
2018-12-26T01:04:24.316Z,10.5
2018-12-26T01:05:14.155Z,10.5
2018-12-26T01:06:03.428Z,10.5
2018-12-26T01:06:55.300Z,10.5
2018-12-26T01:07:45.604Z,10.5
2018-12-26T01:08:34.936Z,10.5
2018-12-26T01:09:23.553Z,10.5
2018-12-26T01:10:15.255Z,10.5
2018-12-26T01:11:04.309Z,10.5
2018-12-26T01:11:54.590Z,10.6
2018-12-26T01:12:44.845Z,10.6
2018-12-26T01:13:34.394Z,10.5
2018-12-26T01:14:25.397Z,10.5
2018-12-26T01:15:14.453Z,10.5
2018-12-26T01:16:05.127Z,10.5
2018-12-26T01:16:55.000Z,10.5
2018-12-26T01:17:44.447Z,10.5
2018-12-26T01:18:35.912Z,10.5
2018-12-26T01:19:24.275Z,10.5
2018-12-26T01:20:16.212Z,10.5
2018-12-26T01:21:04.854Z,10.5
2018-12-26T01:21:55.377Z,10.4
2018-12-26T01:22:44.257Z,10.5
2018-12-26T01:23:36.229Z,10.4
2018-12-26T01:24:25.659Z,10.5
2018-12-26T01:25:15.704Z,10.5
2018-12-26T01:26:05.834Z,10.5
2018-12-26T01:26:56.139Z,10.5
2018-12-26T01:27:46.463Z,10.5
2018-12-26T01:28:35.365Z,10.5
2018-12-26T01:29:25.664Z,10.4
2018-12-26T01:30:16.870Z,10.5
2018-12-26T01:31:06.391Z,10.5
2018-12-26T01:31:56.507Z,10.5
2018-12-26T01:32:45.961Z,10.5
2018-12-26T01:33:36.658Z,10.5
2018-12-26T01:34:26.584Z,10.4
2018-12-26T01:35:16.259Z,10.5
2018-12-26T01:36:06.005Z,10.5
2018-12-26T01:36:56.106Z,10.4
2018-12-26T01:37:46.854Z,10.5
2018-12-26T01:38:37.569Z,10.5
2018-12-26T01:39:27.801Z,10.5
2018-12-26T01:40:17.051Z,10.4
2018-12-26T01:41:07.411Z,10.5
2018-12-26T01:41:57.126Z,10.4
2018-12-26T01:42:47.303Z,10.5
2018-12-26T01:43:37.539Z,10.5
2018-12-26T01:44:27.179Z,10.5
2018-12-26T01:45:17.201Z,10.4
2018-12-26T01:46:07.496Z,10.4
2018-12-26T01:46:56.743Z,10.4
2018-12-26T01:47:47.063Z,10.4
2018-12-26T01:48:36.555Z,10.4
2018-12-26T01:49:27.663Z,10.5
2018-12-26T01:50:17.180Z,10.4
2018-12-26T01:51:06.403Z,10.4
2018-12-26T01:51:57.835Z,10.4
2018-12-26T01:52:47.456Z,10.5
2018-12-26T01:53:38.492Z,10.4
2018-12-26T01:54:28.383Z,10.5
2018-12-26T01:55:17.778Z,10.5
2018-12-26T01:56:08.625Z,10.4
2018-12-26T01:56:58.421Z,10.4
2018-12-26T01:57:47.672Z,10.4
2018-12-26T01:58:38.550Z,10.4
2018-12-26T01:59:28.059Z,10.5
2018-12-26T02:00:18.755Z,10.4
2018-12-26T02:01:08.856Z,10.4
2018-12-26T02:01:58.521Z,10.4
2018-12-26T02:02:48.535Z,10.5
2018-12-26T02:03:38.433Z,10.4
2018-12-26T02:04:27.567Z,10.5
2018-12-26T02:05:19.260Z,10.4
2018-12-26T02:06:08.259Z,10.4
2018-12-26T02:06:58.164Z,10.5
2018-12-26T02:07:49.305Z,10.4
2018-12-26T02:08:38.237Z,10.5
2018-12-26T02:09:29.423Z,10.4
2018-12-26T02:10:18.722Z,10.4
2018-12-26T02:11:08.380Z,10.4
2018-12-26T02:11:59.484Z,10.5
2018-12-26T02:12:47.866Z,10.4
2018-12-26T02:13:37.446Z,10.4
2018-12-26T02:14:29.939Z,10.4
2018-12-26T02:15:20.117Z,10.4
2018-12-26T02:16:08.631Z,10.4
2018-12-26T02:16:59.837Z,10.4
2018-12-26T02:17:48.781Z,10.4
2018-12-26T02:18:39.371Z,10.4
2018-12-26T02:19:30.064Z,10.4
2018-12-26T02:20:19.460Z,10.4
2018-12-26T02:21:08.780Z,10.4
2018-12-26T02:21:59.613Z,10.5
2018-12-26T02:22:50.064Z,10.4
2018-12-26T02:23:40.298Z,10.5
2018-12-26T02:24:29.766Z,10.4
2018-12-26T02:25:20.216Z,10.4
2018-12-26T02:26:10.436Z,10.5
2018-12-26T02:26:59.378Z,10.5
2018-12-26T02:27:50.074Z,10.4
2018-12-26T02:28:39.763Z,10.4
2018-12-26T02:29:29.269Z,10.5
2018-12-26T02:30:20.329Z,10.4
2018-12-26T02:31:09.971Z,10.4
2018-12-26T02:32:00.754Z,10.5
2018-12-26T02:32:49.611Z,10.4
2018-12-26T02:33:40.544Z,10.4
2018-12-26T02:34:30.577Z,10.5
2018-12-26T02:35:20.588Z,10.5
2018-12-26T02:36:10.404Z,10.5
2018-12-26T02:37:01.076Z,10.4
2018-12-26T02:37:51.101Z,10.4
2018-12-26T02:38:41.359Z,10.4
2018-12-26T02:39:31.153Z,10.4
2018-12-26T02:40:21.185Z,10.4
2018-12-26T02:41:11.136Z,10.4
2018-12-26T02:42:01.835Z,10.4
2018-12-26T02:42:51.325Z,10.4
2018-12-26T02:43:40.857Z,10.4
2018-12-26T02:44:31.157Z,10.4
2018-12-26T02:45:21.130Z,10.4
2018-12-26T02:46:11.348Z,10.5
2018-12-26T02:47:01.307Z,10.4
2018-12-26T02:47:51.447Z,10.4
2018-12-26T02:48:41.783Z,10.4
2018-12-26T02:49:32.570Z,10.5
2018-12-26T02:50:21.343Z,10.4
2018-12-26T02:51:11.995Z,10.5
2018-12-26T02:52:02.537Z,10.5
2018-12-26T02:52:51.271Z,10.4
2018-12-26T02:53:41.681Z,10.4
2018-12-26T02:54:32.735Z,10.4
2018-12-26T02:55:22.202Z,10.4
2018-12-26T02:56:12.499Z,10.4
2018-12-26T02:57:02.314Z,10.4
2018-12-26T02:57:52.114Z,10.4
2018-12-26T02:58:42.186Z,10.4
2018-12-26T02:59:32.500Z,10.4
2018-12-26T03:00:22.604Z,10.4
2018-12-26T03:01:12.122Z,10.4
2018-12-26T03:02:03.222Z,10.4
2018-12-26T03:02:53.299Z,10.4
2018-12-26T03:03:42.842Z,10.4
2018-12-26T03:04:32.758Z,10.4
2018-12-26T03:05:23.186Z,10.4
2018-12-26T03:06:12.486Z,10.4
2018-12-26T03:07:02.119Z,10.4
2018-12-26T03:07:53.027Z,10.4
2018-12-26T03:08:42.544Z,10.4
2018-12-26T03:09:32.928Z,10.4
2018-12-26T03:10:22.765Z,10.4
2018-12-26T03:11:13.418Z,10.4
2018-12-26T03:12:03.347Z,10.4
2018-12-26T03:12:53.924Z,10.4
2018-12-26T03:13:42.428Z,10.4
2018-12-26T03:14:33.590Z,10.4
2018-12-26T03:15:23.719Z,10.4
2018-12-26T03:16:13.435Z,10.4
2018-12-26T03:17:03.273Z,10.4
2018-12-26T03:17:53.269Z,10.4
2018-12-26T03:18:44.050Z,10.4
2018-12-26T03:19:34.255Z,10.4
2018-12-26T03:20:22.946Z,10.4
2018-12-26T03:21:14.524Z,10.4
2018-12-26T03:22:04.716Z,10.4
2018-12-26T03:22:53.781Z,10.4
2018-12-26T03:23:43.988Z,10.4
2018-12-26T03:24:34.475Z,10.4
2018-12-26T03:25:23.934Z,10.4
2018-12-26T03:26:14.043Z,10.4
2018-12-26T03:27:04.424Z,10.4
2018-12-26T03:27:54.686Z,10.4
2018-12-26T03:28:42.864Z,10.4
2018-12-26T03:29:34.624Z,10.4
2018-12-26T03:30:25.069Z,10.4
2018-12-26T03:31:14.123Z,10.4
2018-12-26T03:32:04.633Z,10.4
2018-12-26T03:32:54.910Z,10.4
2018-12-26T03:33:45.108Z,10.4
2018-12-26T03:34:34.843Z,10.4
2018-12-26T03:35:24.691Z,10.4
2018-12-26T03:36:15.403Z,10.4
2018-12-26T03:37:05.090Z,10.4
2018-12-26T03:37:55.441Z,10.4
2018-12-26T03:38:45.164Z,10.4
2018-12-26T03:39:34.508Z,10.4
2018-12-26T03:40:25.807Z,10.4
2018-12-26T03:41:14.580Z,10.4
2018-12-26T03:42:05.345Z,10.4
2018-12-26T03:42:55.163Z,10.4
2018-12-26T03:43:44.692Z,10.4
2018-12-26T03:44:34.701Z,10.4
2018-12-26T03:45:25.940Z,10.4
2018-12-26T03:46:14.838Z,10.4
2018-12-26T03:47:05.616Z,10.4
2018-12-26T03:47:55.603Z,10.4
2018-12-26T03:48:46.191Z,10.4
2018-12-26T03:49:36.444Z,10.4
2018-12-26T03:50:25.208Z,10.4
2018-12-26T03:51:16.052Z,10.4
2018-12-26T03:52:09.161Z,10.4
2018-12-26T03:52:56.552Z,10.4
2018-12-26T03:53:45.906Z,10.4
2018-12-26T03:54:36.250Z,10.4
2018-12-26T03:55:26.310Z,10.4
2018-12-26T03:56:15.825Z,10.4
2018-12-26T03:57:14.781Z,10.4
2018-12-26T03:57:54.833Z,10.4
2018-12-26T03:58:46.510Z,10.4
2018-12-26T03:59:36.953Z,10.4
2018-12-26T04:00:26.723Z,10.4
2018-12-26T04:01:16.445Z,10.4
2018-12-26T04:02:06.818Z,10.4
2018-12-26T04:02:56.560Z,10.4
2018-12-26T04:03:46.600Z,10.4
2018-12-26T04:04:35.900Z,10.4
2018-12-26T04:05:26.431Z,10.4
2018-12-26T04:06:16.273Z,10.4
2018-12-26T04:07:06.129Z,10.4
2018-12-26T04:07:57.129Z,10.4
2018-12-26T04:08:46.718Z,10.4
2018-12-26T04:09:37.259Z,10.4
2018-12-26T04:10:27.085Z,10.4
2018-12-26T04:11:17.973Z,10.4
2018-12-26T04:12:07.523Z,10.3
2018-12-26T04:12:57.104Z,10.4
2018-12-26T04:13:46.785Z,10.4
2018-12-26T04:14:37.631Z,10.4
2018-12-26T04:15:26.739Z,10.4
2018-12-26T04:16:17.292Z,10.4
2018-12-26T04:17:07.758Z,10.4
2018-12-26T04:17:58.682Z,10.4
2018-12-26T04:18:47.715Z,10.4
2018-12-26T04:19:37.684Z,10.4
2018-12-26T04:20:27.550Z,10.4
2018-12-26T04:21:17.437Z,10.4
2018-12-26T04:22:06.682Z,10.4
2018-12-26T04:22:56.999Z,10.4
2018-12-26T04:23:47.431Z,10.4
2018-12-26T04:24:38.121Z,10.4
2018-12-26T04:25:28.818Z,10.4
2018-12-26T04:26:17.656Z,10.4
2018-12-26T04:27:17.913Z,10.4
2018-12-26T04:27:57.604Z,10.4
2018-12-26T04:28:47.573Z,10.4
2018-12-26T04:29:36.767Z,10.4
2018-12-26T04:30:28.513Z,10.4
2018-12-26T04:31:18.705Z,10.4
2018-12-26T04:32:07.883Z,10.4
2018-12-26T04:32:57.525Z,10.4
2018-12-26T04:33:47.364Z,10.4
2018-12-26T04:34:37.948Z,10.4
2018-12-26T04:35:27.956Z,10.4
2018-12-26T04:36:18.475Z,10.4
2018-12-26T04:37:08.991Z,10.4
2018-12-26T04:37:58.150Z,10.4
2018-12-26T04:38:48.256Z,10.4
2018-12-26T04:39:39.110Z,10.4
2018-12-26T04:40:27.947Z,10.4
2018-12-26T04:41:18.655Z,10.4
2018-12-26T04:42:08.734Z,10.4
2018-12-26T04:42:57.940Z,10.4
2018-12-26T04:43:51.347Z,10.4
2018-12-26T04:44:39.320Z,10.4
2018-12-26T05:02:01.600Z,10.3
2018-12-26T05:02:51.004Z,10.3
2018-12-26T05:03:40.893Z,10.3
2018-12-26T05:04:31.259Z,10.3
2018-12-26T05:05:21.450Z,10.3
2018-12-26T05:06:12.274Z,10.3
2018-12-26T05:07:00.754Z,10.3
2018-12-26T05:07:51.376Z,10.3
2018-12-26T05:08:42.239Z,10.3
2018-12-26T05:09:32.503Z,10.3
2018-12-26T05:10:21.209Z,10.3
2018-12-26T05:11:12.033Z,10.3
2018-12-26T05:12:01.941Z,10.3
2018-12-26T05:12:52.161Z,10.3
2018-12-26T05:13:42.163Z,10.3
2018-12-26T05:14:32.413Z,10.4
2018-12-26T05:15:22.168Z,10.3
2018-12-26T05:16:11.618Z,10.4
2018-12-26T05:17:02.490Z,10.3
2018-12-26T05:17:52.128Z,10.4
2018-12-26T05:18:41.976Z,10.3
2018-12-26T05:19:32.423Z,10.3
2018-12-26T05:20:21.867Z,10.3
2018-12-26T05:21:12.394Z,10.3
2018-12-26T05:22:02.282Z,10.3
2018-12-26T05:22:52.523Z,10.3
2018-12-26T05:23:43.463Z,10.4
2018-12-26T05:24:32.138Z,10.4
2018-12-26T05:25:21.993Z,10.3
2018-12-26T05:26:12.557Z,10.3
2018-12-26T05:27:02.575Z,10.3
2018-12-26T05:27:54.315Z,10.3
2018-12-26T05:28:43.913Z,10.3
2018-12-26T05:29:33.334Z,10.3
2018-12-26T05:30:23.115Z,10.3
2018-12-26T05:31:13.635Z,10.3
2018-12-26T05:32:03.427Z,10.3
2018-12-26T05:32:52.682Z,10.3
2018-12-26T05:33:43.872Z,10.3
2018-12-26T05:34:33.338Z,10.3
2018-12-26T05:35:23.500Z,10.3
2018-12-26T05:36:13.446Z,10.3
2018-12-26T05:37:03.184Z,10.3
2018-12-26T05:37:53.546Z,10.3
2018-12-26T05:38:43.949Z,10.3
2018-12-26T05:39:32.821Z,10.3
2018-12-26T05:40:23.744Z,10.3
2018-12-26T05:41:13.569Z,10.3
2018-12-26T05:42:04.351Z,10.4
2018-12-26T05:42:54.113Z,10.3
2018-12-26T05:43:44.569Z,10.3
2018-12-26T05:44:33.729Z,10.3
2018-12-26T05:45:24.928Z,10.3
2018-12-26T05:46:14.664Z,10.3
2018-12-26T05:47:05.249Z,10.3
2018-12-26T05:47:54.606Z,10.3
2018-12-26T05:48:44.278Z,10.3
2018-12-26T05:49:35.213Z,10.3
2018-12-26T05:50:24.473Z,10.3
2018-12-26T05:51:14.513Z,10.3
2018-12-26T05:52:03.716Z,10.3
2018-12-26T05:52:54.969Z,10.3
2018-12-26T05:53:44.950Z,10.3
2018-12-26T05:54:34.938Z,10.3
2018-12-26T05:55:24.438Z,10.3
2018-12-26T05:56:15.062Z,10.3
2018-12-26T05:57:04.930Z,10.3
2018-12-26T05:57:53.838Z,10.3
2018-12-26T05:58:45.340Z,10.3
2018-12-26T05:59:35.353Z,10.3
2018-12-26T06:00:24.390Z,10.3
2018-12-26T06:01:14.580Z,10.3
2018-12-26T06:02:06.531Z,10.3
2018-12-26T06:02:56.030Z,10.3
2018-12-26T06:03:44.745Z,10.3
2018-12-26T06:04:35.982Z,10.3
2018-12-26T06:05:25.215Z,10.3
2018-12-26T06:06:16.123Z,10.3
2018-12-26T06:07:06.085Z,10.4
2018-12-26T06:07:55.607Z,10.3
2018-12-26T06:08:46.220Z,10.3
2018-12-26T06:09:35.970Z,10.3
2018-12-26T06:10:26.169Z,10.3
2018-12-26T06:11:16.098Z,10.3
2018-12-26T06:12:06.462Z,10.3
2018-12-26T06:12:56.962Z,10.3
2018-12-26T06:13:46.260Z,10.3
2018-12-26T06:14:35.597Z,10.3
2018-12-26T06:15:25.529Z,10.3
2018-12-26T06:16:15.584Z,10.3
2018-12-26T06:17:06.217Z,10.3
2018-12-26T06:17:57.099Z,10.3
2018-12-26T06:18:46.129Z,10.3
2018-12-26T06:19:36.327Z,10.3
2018-12-26T06:20:27.043Z,10.3
2018-12-26T06:21:17.073Z,10.3
2018-12-26T06:22:06.807Z,10.3
2018-12-26T06:22:56.963Z,10.3
2018-12-26T06:23:46.315Z,10.3
2018-12-26T06:24:36.987Z,10.3
2018-12-26T06:25:26.233Z,10.3
2018-12-26T06:26:17.502Z,10.3
2018-12-26T06:27:07.155Z,10.3
2018-12-26T06:27:59.410Z,10.3
2018-12-26T06:28:47.166Z,10.3
2018-12-26T06:29:36.939Z,10.3
2018-12-26T06:30:27.019Z,10.3
2018-12-26T06:31:17.804Z,10.3
2018-12-26T06:32:06.917Z,10.4
2018-12-26T06:32:56.462Z,10.3
2018-12-26T06:33:47.639Z,10.4
2018-12-26T06:34:38.214Z,10.3
2018-12-26T06:35:28.036Z,10.3
2018-12-26T06:36:17.794Z,10.3
2018-12-26T06:37:08.099Z,10.3
2018-12-26T06:37:57.739Z,10.4
2018-12-26T06:38:48.966Z,10.4
2018-12-26T06:39:37.464Z,10.4
2018-12-26T06:40:28.616Z,10.4
2018-12-26T06:41:17.341Z,10.4
2018-12-26T06:42:07.904Z,10.4
2018-12-26T06:42:58.788Z,10.4
2018-12-26T06:43:48.411Z,10.4
2018-12-26T06:44:40.911Z,10.4
2018-12-26T06:45:28.094Z,10.4
2018-12-26T06:46:18.731Z,10.4
2018-12-26T06:47:08.806Z,10.4
2018-12-26T06:47:58.868Z,10.4
2018-12-26T06:48:48.746Z,10.4
2018-12-26T06:49:38.150Z,10.4
2018-12-26T06:50:28.608Z,10.5
2018-12-26T06:51:19.396Z,10.4
2018-12-26T06:52:08.868Z,10.4
2018-12-26T06:52:58.635Z,10.4
2018-12-26T06:53:48.799Z,10.5
2018-12-26T06:54:38.458Z,10.5
2018-12-26T06:55:28.830Z,10.5
2018-12-26T06:56:19.415Z,10.5
2018-12-26T06:57:09.263Z,10.4
2018-12-26T06:58:08.200Z,10.5
2018-12-26T06:58:49.398Z,10.5
2018-12-26T06:59:39.435Z,10.5
2018-12-26T07:00:27.765Z,10.5
2018-12-26T07:01:19.990Z,10.5
2018-12-26T07:02:08.947Z,10.6
2018-12-26T07:02:59.677Z,10.6
2018-12-26T07:03:49.405Z,10.6
2018-12-26T07:04:40.050Z,10.6
2018-12-26T07:05:30.105Z,10.6
2018-12-26T07:06:19.348Z,10.6
2018-12-26T07:07:09.385Z,10.6
2018-12-26T07:07:59.947Z,10.6
2018-12-26T07:08:50.082Z,10.6
2018-12-26T07:09:40.130Z,10.6
2018-12-26T07:10:29.029Z,10.6
2018-12-26T07:11:20.746Z,10.6
2018-12-26T07:12:09.477Z,10.7
2018-12-26T07:13:00.108Z,10.7
2018-12-26T07:13:49.494Z,10.7
2018-12-26T07:14:40.753Z,10.7
2018-12-26T07:15:31.099Z,10.8
2018-12-26T07:16:22.634Z,10.8
2018-12-26T07:17:10.922Z,10.8
2018-12-26T07:18:00.617Z,10.8
2018-12-26T07:18:50.214Z,10.8
2018-12-26T07:19:40.666Z,10.8
2018-12-26T07:20:31.222Z,10.8
2018-12-26T07:21:20.272Z,10.8
2018-12-26T07:22:10.642Z,10.8
2018-12-26T07:23:01.334Z,10.8
2018-12-26T07:23:50.754Z,10.8
2018-12-26T07:24:40.955Z,10.8
2018-12-26T07:25:30.521Z,10.9
2018-12-26T07:26:20.631Z,10.9
2018-12-26T07:27:10.749Z,10.9
2018-12-26T07:28:10.534Z,10.9
2018-12-26T07:28:51.629Z,10.9
2018-12-26T07:29:41.499Z,10.9
2018-12-26T07:30:31.794Z,10.9
2018-12-26T07:31:21.584Z,10.9
2018-12-26T07:32:12.453Z,10.9
2018-12-26T07:33:01.656Z,10.9
2018-12-26T07:33:51.798Z,10.9
2018-12-26T07:34:49.976Z,11
2018-12-26T07:35:31.003Z,11
2018-12-26T07:36:22.578Z,11
2018-12-26T07:37:12.508Z,11
2018-12-26T07:38:01.718Z,11
2018-12-26T07:38:52.336Z,11.1
2018-12-26T07:39:42.446Z,11.1
2018-12-26T07:40:31.889Z,11.1
2018-12-26T07:41:21.818Z,11.1
2018-12-26T07:42:12.560Z,11.1
2018-12-26T07:43:02.505Z,11.1
2018-12-26T07:43:52.193Z,11.2
2018-12-26T07:44:42.617Z,11.3
2018-12-26T07:45:31.508Z,11.3
2018-12-26T07:46:21.982Z,11.4
2018-12-26T07:47:13.330Z,11.4
2018-12-26T07:48:02.211Z,11.5
2018-12-26T07:48:52.580Z,11.5
2018-12-26T07:49:43.180Z,11.5
2018-12-26T07:50:31.542Z,11.5
2018-12-26T07:51:22.977Z,11.6
2018-12-26T07:52:13.660Z,11.6
2018-12-26T07:53:02.816Z,11.6
2018-12-26T07:53:52.809Z,11.6
2018-12-26T07:54:43.700Z,11.6
2018-12-26T07:55:33.257Z,11.6
2018-12-26T07:56:23.832Z,11.6
2018-12-26T07:57:13.717Z,11.6
2018-12-26T07:58:03.342Z,11.6
2018-12-26T07:58:52.599Z,11.6
2018-12-26T07:59:45.707Z,11.6
2018-12-26T08:00:33.997Z,11.6
2018-12-26T08:01:24.302Z,11.6
2018-12-26T08:02:13.381Z,11.6
2018-12-26T08:03:04.647Z,11.6
2018-12-26T08:03:52.797Z,11.6
2018-12-26T08:04:43.929Z,11.7
2018-12-26T08:05:33.387Z,11.6
2018-12-26T08:06:24.354Z,11.7
2018-12-26T08:07:13.754Z,11.8
2018-12-26T08:08:04.466Z,11.8
2018-12-26T08:08:54.131Z,11.9
2018-12-26T08:09:43.631Z,11.9
2018-12-26T08:10:33.715Z,12
2018-12-26T08:11:24.579Z,12.1
2018-12-26T08:12:13.510Z,12.1
2018-12-26T08:13:03.292Z,12.1
2018-12-26T08:13:54.513Z,12.2
2018-12-26T08:14:43.701Z,12.2
2018-12-26T08:15:33.733Z,12.2
2018-12-26T08:16:24.063Z,12.2
2018-12-26T08:17:14.819Z,12.2
2018-12-26T08:18:05.186Z,12.3
2018-12-26T08:18:54.553Z,12.3
2018-12-26T08:19:44.561Z,12.3
2018-12-26T08:20:34.345Z,12.3
2018-12-26T08:21:24.733Z,12.3
2018-12-26T08:22:15.044Z,12.3
2018-12-26T08:23:05.648Z,12.3
2018-12-26T08:23:55.545Z,12.3
2018-12-26T08:24:45.745Z,12.3
2018-12-26T08:25:35.908Z,12.3
2018-12-26T08:26:24.210Z,12.3
2018-12-26T08:27:15.640Z,12.3
2018-12-26T08:28:04.670Z,12.4
2018-12-26T08:28:55.208Z,12.4
2018-12-26T08:29:44.987Z,12.4
2018-12-26T08:30:34.847Z,12.4
2018-12-26T08:31:24.819Z,12.4
2018-12-26T08:32:15.845Z,12.4
2018-12-26T08:33:06.577Z,12.4
2018-12-26T08:33:55.535Z,12.4
2018-12-26T08:34:45.759Z,12.4
2018-12-26T08:35:35.929Z,12.4
2018-12-26T08:36:26.467Z,12.4
2018-12-26T08:37:15.303Z,12.4
2018-12-26T08:38:06.372Z,12.4
2018-12-26T08:38:56.180Z,12.4
2018-12-26T08:39:47.170Z,12.4
2018-12-26T08:40:36.292Z,12.4
2018-12-26T08:41:26.239Z,12.4
2018-12-26T08:42:16.939Z,12.4
2018-12-26T08:43:05.947Z,12.4
2018-12-26T08:43:57.161Z,12.4
2018-12-26T08:44:45.457Z,12.4
2018-12-26T08:45:36.167Z,12.4
2018-12-26T08:46:27.054Z,12.4
2018-12-26T08:47:17.272Z,12.4
2018-12-26T08:48:07.375Z,12.4
2018-12-26T08:48:57.104Z,12.4
2018-12-26T08:49:47.209Z,12.4
2018-12-26T08:50:37.261Z,12.4
2018-12-26T08:51:27.296Z,12.4
2018-12-26T08:52:32.102Z,12.4
2018-12-26T08:53:06.284Z,12.4
2018-12-26T08:53:57.686Z,12.4
2018-12-26T08:54:46.966Z,12.4
2018-12-26T08:55:37.618Z,12.4
2018-12-26T08:56:27.216Z,12.4
2018-12-26T08:57:18.346Z,12.4
2018-12-26T08:58:07.081Z,12.4
2018-12-26T08:58:59.376Z,12.4
2018-12-26T08:59:46.800Z,12.4
2018-12-26T09:00:37.386Z,12.3
2018-12-26T09:16:31.094Z,12.1
2018-12-26T09:17:21.841Z,12.1
2018-12-26T09:18:11.759Z,12.1
2018-12-26T09:19:02.251Z,12.2
2018-12-26T09:19:52.146Z,12.2
2018-12-26T09:20:42.184Z,12.2
2018-12-26T09:21:31.431Z,12.2
2018-12-26T09:22:22.184Z,12.2
2018-12-26T09:23:14.026Z,12.2
2018-12-26T09:24:02.817Z,12.3
2018-12-26T09:24:51.594Z,12.2
2018-12-26T09:25:41.612Z,12.2
2018-12-26T09:26:32.103Z,12.2
2018-12-26T09:27:22.811Z,12.3
2018-12-26T09:28:10.735Z,12.3
2018-12-26T09:29:02.158Z,12.3
2018-12-26T09:29:53.939Z,12.3
2018-12-26T09:30:42.563Z,12.3
2018-12-26T09:31:31.533Z,12.3
2018-12-26T09:32:21.888Z,12.3
2018-12-26T09:33:12.585Z,12.3
2018-12-26T09:34:02.090Z,12.3
2018-12-26T09:34:52.682Z,12.3
2018-12-26T09:35:43.418Z,12.3
2018-12-26T09:36:32.938Z,12.4
2018-12-26T09:37:22.678Z,12.3
2018-12-26T09:38:12.745Z,12.3
2018-12-26T09:39:02.777Z,12.3
2018-12-26T09:39:53.116Z,12.3
2018-12-26T09:40:43.452Z,12.3
2018-12-26T09:41:33.087Z,12.3
2018-12-26T09:42:23.947Z,12.3
2018-12-26T09:43:13.371Z,12.3
2018-12-26T09:44:03.711Z,12.3
2018-12-26T09:45:02.245Z,12.3
2018-12-26T09:45:43.265Z,12.2
2018-12-26T09:46:33.375Z,12.2
2018-12-26T09:47:24.059Z,12.2
2018-12-26T09:48:13.427Z,12.2
2018-12-26T09:49:03.232Z,12.2
2018-12-26T09:49:53.879Z,12.2
2018-12-26T09:50:43.079Z,12.1
2018-12-26T09:51:34.505Z,12.1
2018-12-26T09:52:24.789Z,12.2
2018-12-26T09:53:13.801Z,12.1
2018-12-26T09:54:03.673Z,12.1
2018-12-26T09:54:55.434Z,12.1
2018-12-26T09:55:43.388Z,12.1
2018-12-26T09:56:34.001Z,12
2018-12-26T09:57:25.026Z,12
2018-12-26T09:58:14.243Z,12
2018-12-26T09:59:04.178Z,12
2018-12-26T09:59:53.386Z,12
2018-12-26T10:00:44.402Z,12
2018-12-26T10:01:34.171Z,11.9
2018-12-26T10:02:24.710Z,11.9
2018-12-26T10:03:14.558Z,11.9
2018-12-26T10:04:04.488Z,11.9
2018-12-26T10:04:55.173Z,11.9
2018-12-26T10:05:45.373Z,11.9
2018-12-26T10:06:34.730Z,11.9
2018-12-26T10:07:24.846Z,11.9
2018-12-26T10:08:16.016Z,11.9
2018-12-26T10:09:05.078Z,11.9
2018-12-26T10:09:54.125Z,11.9
2018-12-26T10:10:45.290Z,11.9
2018-12-26T10:11:35.176Z,11.9
2018-12-26T10:12:25.744Z,11.9
2018-12-26T10:13:15.208Z,11.8
2018-12-26T10:14:04.734Z,11.9
2018-12-26T10:14:55.037Z,11.9
2018-12-26T10:15:45.372Z,11.8
2018-12-26T10:16:35.427Z,11.8
2018-12-26T10:17:26.117Z,11.8
2018-12-26T10:18:15.220Z,11.8
2018-12-26T10:19:05.309Z,11.8
2018-12-26T10:19:58.094Z,11.8
2018-12-26T10:20:46.750Z,11.8
2018-12-26T10:21:36.284Z,11.8
2018-12-26T10:22:26.784Z,11.8
2018-12-26T10:23:16.204Z,11.8
2018-12-26T10:24:07.147Z,11.8
2018-12-26T10:24:55.919Z,11.8
2018-12-26T10:25:46.359Z,11.7
2018-12-26T10:26:36.097Z,11.7
2018-12-26T10:27:26.939Z,11.6
2018-12-26T10:28:17.282Z,11.6
2018-12-26T10:29:09.257Z,11.6
2018-12-26T10:29:56.962Z,11.6
2018-12-26T10:30:46.234Z,11.6
2018-12-26T10:31:37.236Z,11.6
2018-12-26T10:32:26.182Z,11.6
2018-12-26T10:33:17.204Z,11.6
2018-12-26T10:34:07.639Z,11.6
2018-12-26T10:34:56.893Z,11.6
2018-12-26T10:35:46.691Z,11.6
2018-12-26T10:36:36.718Z,11.6
2018-12-26T10:37:26.298Z,11.6
2018-12-26T10:38:16.945Z,11.6
2018-12-26T10:39:07.186Z,11.6
2018-12-26T10:39:57.550Z,11.5
2018-12-26T10:40:47.978Z,11.4
2018-12-26T10:41:37.650Z,11.5
2018-12-26T10:42:27.378Z,11.5
2018-12-26T10:43:18.005Z,11.5
2018-12-26T10:44:06.266Z,11.4
2018-12-26T10:44:57.043Z,11.4
2018-12-26T10:45:47.905Z,11.4
2018-12-26T10:46:38.344Z,11.3
2018-12-26T10:47:28.290Z,11.3
2018-12-26T10:48:18.163Z,11.3
2018-12-26T10:49:07.665Z,11.3
2018-12-26T10:49:58.213Z,11.3
2018-12-26T10:50:48.288Z,11.3
2018-12-26T10:51:38.145Z,11.3
2018-12-26T10:52:28.410Z,11.3
2018-12-26T10:53:17.865Z,11.3
2018-12-26T10:54:07.992Z,11.3
2018-12-26T10:54:58.560Z,11.3
2018-12-26T10:55:48.732Z,11.3
2018-12-26T10:56:37.850Z,11.3
2018-12-26T10:57:29.016Z,11.3
2018-12-26T10:58:18.047Z,11.3
2018-12-26T10:59:17.991Z,11.3
2018-12-26T10:59:58.059Z,11.2
2018-12-26T11:00:49.199Z,11.3
2018-12-26T11:01:39.043Z,11.2
2018-12-26T11:02:28.512Z,11.2
2018-12-26T11:03:19.648Z,11.2
2018-12-26T11:04:08.896Z,11.2
2018-12-26T11:04:58.574Z,11.2
2018-12-26T11:05:49.044Z,11.1
2018-12-26T11:06:38.824Z,11.1
2018-12-26T11:07:29.699Z,11.1
2018-12-26T11:08:19.539Z,11.1
2018-12-26T11:09:07.901Z,11.1
2018-12-26T11:09:59.388Z,11.1
2018-12-26T11:10:50.491Z,11.1
2018-12-26T11:11:38.991Z,11.2
2018-12-26T11:12:29.552Z,11.2
2018-12-26T11:13:19.594Z,11.1
2018-12-26T11:14:09.631Z,11.1
2018-12-26T11:14:59.934Z,11.1
2018-12-26T11:15:50.253Z,11.1
2018-12-26T11:16:39.521Z,11.1
2018-12-26T11:17:30.244Z,11.1
2018-12-26T11:18:19.331Z,11.1
2018-12-26T11:19:10.651Z,11.1
2018-12-26T11:20:00.154Z,11.1
2018-12-26T11:20:50.401Z,11.1
2018-12-26T11:21:40.413Z,11.1
2018-12-26T11:22:30.584Z,11.1
2018-12-26T11:23:20.516Z,11.1
2018-12-26T11:24:09.478Z,11.1
2018-12-26T11:25:00.395Z,11.1
2018-12-26T11:25:50.115Z,11.1
2018-12-26T11:26:40.838Z,11.1
2018-12-26T11:27:30.595Z,11.1
2018-12-26T11:28:20.021Z,11.1
2018-12-26T11:29:18.297Z,11.1
2018-12-26T11:30:00.753Z,11.1
2018-12-26T11:30:50.000Z,11.1
2018-12-26T11:31:41.160Z,11.1
2018-12-26T11:32:30.861Z,11.1
2018-12-26T11:33:20.771Z,11.1
2018-12-26T11:34:10.723Z,11.1
2018-12-26T11:35:01.456Z,11.1
2018-12-26T11:35:50.763Z,11.1
2018-12-26T11:36:41.748Z,11.1
2018-12-26T11:37:31.031Z,11.1
2018-12-26T11:38:21.530Z,11.1
2018-12-26T11:39:11.291Z,11.1
2018-12-26T11:40:01.383Z,11.1
2018-12-26T11:40:51.412Z,11.2
2018-12-26T11:41:41.485Z,11.1
2018-12-26T11:42:30.753Z,11.2
2018-12-26T11:43:21.633Z,11.2
2018-12-26T11:44:11.737Z,11.2
2018-12-26T11:45:01.919Z,11.2
2018-12-26T11:45:51.272Z,11.2
2018-12-26T11:46:42.087Z,11.2
2018-12-26T11:47:32.182Z,11.2
2018-12-26T11:48:21.957Z,11.2
2018-12-26T11:49:12.295Z,11.2
2018-12-26T11:50:02.392Z,11.2
2018-12-26T11:50:52.672Z,11.2
2018-12-26T11:51:42.018Z,11.2
2018-12-26T11:52:32.365Z,11.2
2018-12-26T11:53:21.472Z,11.2
2018-12-26T11:54:12.339Z,11.2
2018-12-26T11:55:03.074Z,11.2
2018-12-26T11:55:52.486Z,11.1